Flight Track Log - Related Links

Times and Time Zones

All times are in EDT time to prevent confusion due to time zone crossing. See the JBU1329 flight status page for this flight to view local times or setup timezone preferences in your user account.

Time Position Orientation Groundspeed Altitude Reporting Facility
EDT Latitude Longitude Course Direction KTS MPH feet Rate Location/Type
Mon 09:13:09 AM 42.3500 -71.0167 240° Southwest 139 160 700  Level KA90
Mon 09:15:37 AM 42.2681 -71.1467 230° Southwest 223 257 6,500 2,769 Climbing Boston Center
Mon 09:16:00 AM 42.2663 -70.7673 228° Southwest  Level FlightAware Approximate
Mon 09:16:37 AM 42.2358 -71.2456 246° West 250 288 10,300  Level Boston Center
Mon 09:17:00 AM 42.2222 -70.8427 240° Southwest  Level FlightAware Approximate
Mon 09:17:36 AM 42.2158 -71.3356 253° West 279 321 12,400  Level Boston Center
Mon 09:18:00 AM 42.1864 -70.9261 240° Southwest  Level FlightAware Approximate
Mon 09:18:37 AM 42.1900 -71.4650 255° West 318 366 15,500  Level Boston Center
Mon 09:19:37 AM 42.1658 -71.5775 254° West 338 389 17,800 2,471 Climbing Boston Center
Mon 09:20:36 AM 42.1397 -71.7206 256° West 349 402 20,400 2,471 Climbing Boston Center
Mon 09:21:36 AM 42.1133 -71.8497 255° West 360 414 22,700 2,150 Climbing Boston Center
Mon 09:22:36 AM 42.0828 -71.9842 253° West 365 420 24,700 1,835 Climbing Boston Center
Mon 09:23:37 AM 42.0206 -72.1103 236° Southwest 383 441 26,400 1,736 Climbing Boston Center
Mon 09:24:37 AM 41.9583 -72.2419 238° Southwest 403 464 28,200 1,462 Climbing Boston Center
Mon 09:25:36 AM 41.8897 -72.3758 235° Southwest 427 491 29,300 1,550 Climbing Boston Center
Mon 09:26:37 AM 41.8253 -72.5042 236° Southwest 427 491 31,300 1,350 Climbing Boston Center
Mon 09:27:36 AM 41.7603 -72.6350 236° Southwest 427 491 32,000 353 Climbing Boston Center
Mon 09:28:36 AM 41.7061 -72.7431 236° Southwest 427 491 32,000  Level Boston Center
Mon 09:29:37 AM 41.6283 -72.9011 237° Southwest 432 497 32,000  Level Boston Center
Mon 09:30:37 AM 41.5611 -73.0339 236° Southwest 432 497 32,000  Level Boston Center
Mon 09:31:37 AM 41.4978 -73.1661 237° Southwest 432 497 32,000  Level Boston Center
Mon 09:32:36 AM 41.4281 -73.2956 234° Southwest 432 497 32,000  Level Boston Center
Mon 09:34:55 AM 41.2822 -73.5817 236° Southwest 434 499 32,000  Level New York Center
Mon 09:35:53 AM 41.2083 -73.7111 233° Southwest 440 506 32,000  Level New York Center
Mon 09:36:54 AM 41.1322 -73.8372 231° Southwest 445 512 32,000  Level New York Center
Mon 09:37:54 AM 41.0581 -73.9658 233° Southwest 450 518 32,000  Level New York Center
Mon 09:38:54 AM 40.9817 -74.0886 231° Southwest 450 518 32,000 -595 Level New York Center
Mon 09:39:55 AM 40.8967 -74.2244 230° Southwest 450 518 30,800 -1,770 Descending New York Center
Mon 09:40:56 AM 40.8197 -74.3522 232° Southwest 450 518 28,400 -1,412 Descending New York Center
Mon 09:41:54 AM 40.7450 -74.4769 232° Southwest 450 518 28,000 -203 Descending New York Center
Mon 09:42:54 AM 40.6664 -74.5931 228° Southwest 444 511 28,000 -250 Level New York Center
Mon 09:43:54 AM 40.5831 -74.7169 228° Southwest 444 511 27,500 -850 Descending New York Center
Mon 09:44:54 AM 40.5044 -74.8297 228° Southwest 444 511 26,300 -1,140 Descending New York Center
Mon 09:45:55 AM 40.4253 -74.9478 229° Southwest 439 505 25,200 -655 Descending New York Center
Mon 09:46:53 AM 40.3483 -75.0575 227° Southwest 434 499 25,000 -407 Descending New York Center
Mon 09:47:53 AM 40.2711 -75.1697 228° Southwest 428 493 24,400 -1,350 Descending New York Center
Mon 09:48:53 AM 40.1961 -75.2817 229° Southwest 423 487 22,300 -2,132 Descending New York Center
Mon 09:49:54 AM 40.1192 -75.3881 227° Southwest 423 487 20,100 -2,083 Descending New York Center
Mon 09:50:54 AM 40.0439 -75.4942 227° Southwest 410 472 18,100 -1,140 Descending New York Center
Mon 09:51:55 AM 39.9797 -75.5847 227° Southwest 393 452 17,800 -595 Descending New York Center
Mon 09:52:55 AM 39.9044 -75.6958 229° Southwest 388 447 16,900 -950 Descending New York Center
Mon 09:53:55 AM 39.8522 -75.7978 236° Southwest 377 434 15,900 -1,250 Descending New York Center
Mon 09:54:55 AM 39.7908 -75.9150 236° Southwest 370 426 14,400 -1,376 Descending New York Center
Mon 09:56:45 AM 39.6833 -76.1167 235° Southwest 346 398 12,000 -1,057 Descending Potomac TRACON
Mon 09:57:51 AM 39.6167 -76.1833 218° Southwest 291 335 11,300 -1,095 Descending Potomac TRACON
Mon 09:58:51 AM 39.5667 -76.2500 226° Southwest 286 329 9,700 -1,617 Descending Potomac TRACON
Mon 09:59:46 AM 39.5000 -76.3167 218° Southwest 279 321 8,200 -1,686 Descending Potomac TRACON
Mon 10:00:52 AM 39.4333 -76.3833 218° Southwest 275 316 6,300 -1,559 Descending Potomac TRACON
Mon 10:01:53 AM 39.3667 -76.4000 191° South 273 314 4,900 -1,200 Descending Potomac TRACON
Mon 10:02:47 AM 39.3000 -76.4167 191° South 264 304 4,000 -632 Descending Potomac TRACON
Mon 10:03:47 AM 39.2333 -76.4333 191° South 223 257 3,700 -526 Descending Potomac TRACON
Mon 10:04:41 AM 39.1833 -76.4667 207° Southwest 218 251 3,000 -365 Descending Potomac TRACON
Mon 10:05:42 AM 39.1500 -76.5000 218° Southwest 174 200 3,000  Level Potomac TRACON

Login

Don't have an account? Register now (free) for customized features, flight alerts, and more!